createdAt,value
2023-01-20T00:01:25.230Z,7.67
2023-01-20T00:03:54.753Z,7.70
2023-01-20T00:06:23.528Z,7.72
2023-01-20T00:08:52.278Z,7.72
2023-01-20T00:11:21.434Z,7.72
2023-01-20T00:13:54.819Z,7.73
2023-01-20T00:16:23.813Z,7.71
2023-01-20T00:18:52.554Z,7.72
2023-01-20T00:21:20.836Z,7.68
2023-01-20T00:23:50.141Z,7.69
2023-01-20T00:26:20.374Z,7.68
2023-01-20T00:28:49.493Z,7.70
2023-01-20T00:31:21.008Z,7.71
2023-01-20T00:33:50.565Z,7.71
2023-01-20T00:36:20.760Z,7.72
2023-01-20T00:38:49.140Z,7.67
2023-01-20T00:41:18.304Z,7.53
2023-01-20T00:43:46.684Z,7.54
2023-01-20T00:46:15.412Z,7.52
2023-01-20T00:48:44.993Z,7.52
2023-01-20T00:51:13.235Z,7.53
2023-01-20T00:53:41.351Z,7.52
2023-01-20T00:56:09.894Z,7.46
2023-01-20T00:58:37.922Z,7.46
2023-01-20T01:01:06.595Z,7.46
2023-01-20T01:03:35.019Z,7.45
2023-01-20T01:06:09.135Z,7.42
2023-01-20T01:08:37.725Z,7.37
2023-01-20T01:11:06.711Z,7.35
2023-01-20T01:13:35.221Z,7.34
2023-01-20T01:16:03.628Z,7.33
2023-01-20T01:18:31.811Z,7.30
2023-01-20T01:21:00.117Z,7.26
2023-01-20T01:23:29.931Z,7.24
2023-01-20T01:25:58.535Z,7.23
2023-01-20T01:28:26.619Z,7.19
2023-01-20T01:30:55.068Z,7.17
2023-01-20T01:33:23.186Z,7.14
2023-01-20T01:35:57.736Z,7.12
2023-01-20T01:38:26.736Z,7.11
2023-01-20T01:40:57.287Z,7.09
2023-01-20T01:43:28.919Z,7.08
2023-01-20T01:45:56.844Z,7.07
2023-01-20T01:48:29.597Z,7.04
2023-01-20T01:51:01.882Z,7.01
2023-01-20T01:53:33.201Z,6.97
2023-01-20T01:56:04.814Z,6.94
2023-01-20T01:58:36.785Z,6.90
2023-01-20T02:01:05.549Z,6.89
2023-01-20T02:03:43.409Z,6.89
2023-01-20T02:06:13.754Z,6.88
2023-01-20T02:08:43.144Z,6.90
2023-01-20T02:11:12.784Z,6.91
2023-01-20T02:13:41.204Z,6.91
2023-01-20T02:16:18.437Z,6.95
2023-01-20T02:19:01.507Z,6.98
2023-01-20T02:22:01.877Z,7.02
2023-01-20T02:25:12.174Z,7.05
2023-01-20T02:28:06.829Z,7.06
2023-01-20T02:30:49.398Z,7.02
2023-01-20T02:33:24.909Z,7.02
2023-01-20T02:35:59.746Z,7.03
2023-01-20T02:38:34.168Z,7.06
2023-01-20T02:41:10.060Z,7.07
2023-01-20T02:43:45.785Z,7.09
2023-01-20T02:46:23.172Z,7.12
2023-01-20T02:48:55.800Z,7.14
2023-01-20T02:51:28.737Z,7.18
2023-01-20T02:54:10.055Z,7.21
2023-01-20T02:56:40.216Z,7.23
2023-01-20T02:59:12.668Z,7.23
2023-01-20T03:01:45.884Z,7.24
2023-01-20T03:04:20.195Z,7.23
2023-01-20T03:06:53.608Z,7.19
2023-01-20T03:09:28.439Z,7.19
2023-01-20T03:12:02.889Z,7.18
2023-01-20T03:14:31.593Z,7.17
2023-01-20T03:17:00.296Z,7.16
2023-01-20T03:19:29.771Z,7.16
2023-01-20T03:21:58.471Z,7.14
2023-01-20T03:24:30.513Z,7.15
2023-01-20T03:26:59.846Z,7.08
2023-01-20T03:29:30.657Z,7.08
2023-01-20T03:32:00.923Z,7.05
2023-01-20T03:34:34.252Z,7.03
2023-01-20T03:37:04.580Z,7.02
2023-01-20T03:39:33.790Z,7.00
2023-01-20T03:42:08.701Z,6.98
2023-01-20T03:44:53.398Z,6.84
2023-01-20T03:47:30.081Z,6.94
2023-01-20T03:50:08.150Z,6.93
2023-01-20T03:52:47.028Z,6.86
2023-01-20T03:55:23.090Z,6.80
2023-01-20T03:57:56.480Z,6.81
2023-01-20T04:00:29.532Z,6.86
2023-01-20T04:03:01.213Z,6.86
2023-01-20T04:05:31.098Z,6.86
2023-01-20T04:08:02.946Z,6.88
2023-01-20T04:10:33.704Z,6.87
2023-01-20T04:13:01.963Z,6.83
2023-01-20T04:15:33.798Z,6.84
2023-01-20T04:18:12.773Z,6.85
2023-01-20T04:20:43.114Z,6.85
2023-01-20T04:23:18.686Z,6.85
2023-01-20T04:25:46.888Z,6.88
2023-01-20T04:28:15.383Z,6.89
2023-01-20T04:30:43.573Z,6.93
2023-01-20T04:33:11.809Z,6.93
2023-01-20T04:35:42.030Z,6.95
2023-01-20T04:38:10.542Z,6.94
2023-01-20T04:40:39.144Z,6.95
2023-01-20T04:43:10.045Z,6.93
2023-01-20T04:45:38.302Z,6.91
2023-01-20T04:48:12.288Z,6.94
2023-01-20T04:50:43.257Z,6.96
2023-01-20T04:53:17.359Z,6.97
2023-01-20T04:55:46.824Z,6.96
2023-01-20T04:58:16.668Z,6.97
2023-01-20T05:00:45.748Z,6.96
2023-01-20T05:03:14.111Z,6.96
2023-01-20T05:05:43.574Z,6.96
2023-01-20T05:08:11.801Z,6.94
2023-01-20T05:10:40.100Z,6.99
2023-01-20T05:13:08.065Z,6.99
2023-01-20T05:15:36.195Z,6.99
2023-01-20T05:18:04.653Z,6.98
2023-01-20T05:20:32.635Z,6.96
2023-01-20T05:23:02.091Z,6.96
2023-01-20T05:25:30.325Z,6.87
2023-01-20T05:27:59.684Z,6.92
2023-01-20T05:30:27.796Z,6.86
2023-01-20T05:32:56.397Z,6.89
2023-01-20T05:35:24.554Z,6.90
2023-01-20T05:37:54.380Z,6.94
2023-01-20T05:40:24.582Z,6.94
2023-01-20T05:42:52.665Z,6.91
2023-01-20T05:45:21.049Z,6.91
2023-01-20T05:47:49.748Z,6.92
2023-01-20T05:50:18.246Z,6.89
2023-01-20T05:52:47.980Z,6.86
2023-01-20T05:55:18.052Z,6.85
2023-01-20T05:57:47.614Z,6.84
2023-01-20T06:00:18.726Z,6.81
2023-01-20T06:02:47.181Z,6.85
2023-01-20T06:05:15.604Z,6.86
2023-01-20T06:07:43.678Z,6.88
2023-01-20T06:10:13.266Z,6.90
2023-01-20T06:12:41.460Z,6.89
2023-01-20T06:15:12.428Z,6.89
2023-01-20T06:17:40.690Z,6.86
2023-01-20T06:20:10.305Z,6.87
2023-01-20T06:22:38.406Z,6.87
2023-01-20T06:25:07.196Z,6.86
2023-01-20T06:27:35.165Z,6.85
2023-01-20T06:30:03.156Z,6.84
2023-01-20T06:32:32.915Z,6.85
2023-01-20T06:35:00.799Z,6.85
2023-01-20T06:37:28.832Z,6.84
2023-01-20T06:39:57.239Z,6.83
2023-01-20T06:42:25.213Z,6.80
2023-01-20T06:44:53.503Z,6.78
2023-01-20T06:47:21.890Z,6.74
2023-01-20T06:49:51.308Z,6.72
2023-01-20T06:52:19.379Z,6.68
2023-01-20T06:54:47.660Z,6.68
2023-01-20T06:57:15.653Z,6.68
2023-01-20T06:59:43.673Z,6.68
2023-01-20T07:02:13.289Z,6.65
2023-01-20T07:04:42.583Z,6.63
2023-01-20T07:07:13.850Z,6.63
2023-01-20T07:09:42.097Z,6.63
2023-01-20T07:12:10.028Z,6.61
2023-01-20T07:14:38.067Z,6.59
2023-01-20T07:17:12.049Z,6.60
2023-01-20T07:19:40.088Z,6.63
2023-01-20T07:22:08.590Z,6.67
2023-01-20T07:24:38.198Z,6.61
2023-01-20T07:27:06.272Z,6.62
2023-01-20T07:29:34.702Z,6.59
2023-01-20T07:32:02.713Z,6.62
2023-01-20T07:34:30.726Z,6.68
2023-01-20T07:37:01.360Z,6.73
2023-01-20T07:39:29.396Z,6.78
2023-01-20T07:41:58.991Z,6.83
2023-01-20T07:44:27.198Z,6.88
2023-01-20T07:46:55.170Z,6.88
2023-01-20T07:49:23.240Z,6.91
2023-01-20T07:51:51.525Z,6.90
2023-01-20T07:54:19.607Z,6.95
2023-01-20T07:56:47.794Z,6.99
2023-01-20T07:59:17.534Z,7.03
2023-01-20T08:01:45.855Z,7.08
2023-01-20T08:04:14.432Z,7.11
2023-01-20T08:06:42.496Z,7.13
2023-01-20T08:09:12.219Z,7.13
2023-01-20T08:11:40.491Z,7.14
2023-01-20T08:14:08.668Z,7.19
2023-01-20T08:16:38.086Z,7.17
2023-01-20T08:19:06.391Z,7.21
2023-01-20T08:21:34.682Z,7.26
2023-01-20T08:24:06.459Z,7.29
2023-01-20T08:26:35.327Z,7.35
2023-01-20T08:29:04.349Z,7.39
2023-01-20T08:31:32.543Z,7.30
2023-01-20T08:34:02.385Z,7.24
2023-01-20T08:36:32.631Z,7.20
2023-01-20T08:39:03.149Z,7.12
2023-01-20T08:41:33.682Z,7.04
2023-01-20T08:44:04.531Z,7.11
2023-01-20T08:46:33.552Z,7.25
2023-01-20T08:49:03.216Z,7.38
2023-01-20T08:51:33.137Z,7.43
2023-01-20T08:54:02.460Z,7.53
2023-01-20T08:56:31.204Z,7.53
2023-01-20T08:58:59.756Z,7.55
2023-01-20T09:01:31.048Z,7.60
2023-01-20T09:04:05.853Z,7.67
2023-01-20T09:06:47.290Z,7.76
2023-01-20T09:09:17.906Z,7.83
2023-01-20T09:11:51.336Z,7.89
2023-01-20T09:14:20.219Z,7.94
2023-01-20T09:16:48.617Z,8.04
2023-01-20T09:19:16.769Z,7.99
2023-01-20T09:21:46.203Z,8.06
2023-01-20T09:24:14.476Z,8.06
2023-01-20T09:26:42.528Z,8.16
2023-01-20T09:29:12.466Z,8.26
2023-01-20T09:31:44.478Z,8.34
2023-01-20T09:34:19.073Z,8.51
2023-01-20T09:36:52.376Z,8.59
2023-01-20T09:39:39.265Z,8.73
2023-01-20T09:42:41.901Z,8.68
2023-01-20T09:45:25.326Z,8.77
2023-01-20T09:48:03.592Z,8.83
2023-01-20T09:51:01.190Z,8.89
2023-01-20T09:53:40.642Z,9.02
2023-01-20T09:56:16.496Z,9.03
2023-01-20T09:58:50.904Z,9.08
2023-01-20T10:01:24.408Z,9.07
2023-01-20T10:04:00.346Z,9.13
2023-01-20T10:06:34.667Z,9.15
2023-01-20T10:09:09.237Z,9.19
2023-01-20T10:11:42.152Z,9.23
2023-01-20T10:14:17.133Z,9.25
2023-01-20T10:16:52.480Z,9.25
2023-01-20T10:19:28.078Z,9.26
2023-01-20T10:22:08.383Z,9.27
2023-01-20T10:24:45.559Z,9.18
2023-01-20T10:27:13.750Z,9.08
2023-01-20T10:29:48.556Z,9.14
2023-01-20T10:32:25.669Z,9.12
2023-01-20T10:34:58.023Z,9.19
2023-01-20T10:37:27.051Z,9.18
2023-01-20T10:40:01.992Z,9.27
2023-01-20T10:42:30.283Z,9.37
2023-01-20T10:45:00.027Z,9.47
2023-01-20T10:47:42.265Z,9.54
2023-01-20T10:50:41.635Z,9.54
2023-01-20T10:53:35.734Z,9.59
2023-01-20T10:56:20.489Z,9.71
2023-01-20T10:58:48.658Z,9.89
2023-01-20T11:01:19.849Z,10.02
2023-01-20T11:03:49.888Z,10.14
2023-01-20T11:06:20.976Z,10.18
2023-01-20T11:08:49.558Z,10.23
2023-01-20T11:11:21.627Z,10.30
2023-01-20T11:13:51.610Z,10.33
2023-01-20T11:16:24.912Z,10.38
2023-01-20T11:18:57.922Z,10.34
2023-01-20T11:21:27.463Z,10.31
2023-01-20T11:23:56.837Z,10.24
2023-01-20T11:26:29.111Z,10.15
2023-01-20T11:28:59.085Z,10.08
2023-01-20T11:31:39.704Z,10.04
2023-01-20T11:34:23.781Z,10.10
2023-01-20T11:36:52.765Z,10.15
2023-01-20T11:39:27.365Z,10.13
2023-01-20T11:42:16.377Z,10.15
2023-01-20T11:44:45.734Z,10.23
2023-01-20T11:47:25.558Z,10.24
2023-01-20T11:50:25.581Z,10.23
2023-01-20T11:52:53.817Z,10.28
2023-01-20T11:55:24.220Z,10.30
2023-01-20T11:57:56.884Z,10.43
2023-01-20T12:00:37.164Z,10.49
2023-01-20T12:03:27.705Z,10.52
2023-01-20T12:06:01.609Z,10.59
2023-01-20T12:08:35.935Z,10.63
2023-01-20T12:11:08.154Z,10.69
2023-01-20T12:13:59.624Z,10.74
2023-01-20T12:16:30.966Z,10.63
2023-01-20T12:19:05.610Z,10.63
2023-01-20T12:21:38.115Z,10.70
2023-01-20T12:24:16.514Z,10.84
2023-01-20T12:26:44.646Z,10.88
2023-01-20T12:29:22.376Z,11.00
2023-01-20T12:31:50.892Z,11.09
2023-01-20T12:34:25.101Z,11.12
2023-01-20T12:37:06.449Z,11.09
2023-01-20T12:39:48.966Z,11.12
2023-01-20T12:42:43.555Z,11.16
2023-01-20T12:45:28.525Z,11.19
2023-01-20T12:48:07.537Z,11.20
2023-01-20T12:50:53.111Z,11.27
2023-01-20T12:53:39.128Z,11.30
2023-01-20T12:56:16.985Z,11.20
2023-01-20T12:58:56.556Z,11.12
2023-01-20T13:01:39.123Z,11.11
2023-01-20T13:04:34.882Z,10.89
2023-01-20T13:07:15.056Z,10.82
2023-01-20T13:09:58.473Z,10.77
2023-01-20T13:12:36.900Z,10.80
2023-01-20T13:15:19.034Z,10.80
2023-01-20T13:18:03.270Z,10.80
2023-01-20T13:20:32.018Z,10.76
2023-01-20T13:23:04.067Z,10.76
2023-01-20T13:25:34.885Z,10.71
2023-01-20T13:28:04.942Z,10.73
2023-01-20T13:30:43.712Z,10.74
2023-01-20T13:33:19.376Z,10.76
2023-01-20T13:35:50.026Z,10.75
2023-01-20T13:38:21.767Z,10.75
2023-01-20T13:40:53.466Z,10.80
2023-01-20T13:43:36.841Z,10.75
2023-01-20T13:46:46.573Z,10.74
2023-01-20T13:49:23.443Z,10.69
2023-01-20T13:51:51.749Z,10.65
2023-01-20T13:54:39.249Z,10.65
2023-01-20T13:57:36.612Z,10.57
2023-01-20T14:00:17.393Z,10.59
2023-01-20T14:02:46.867Z,10.52
2023-01-20T14:05:37.698Z,10.50
2023-01-20T14:08:14.757Z,10.44
2023-01-20T14:10:42.964Z,10.33
2023-01-20T14:13:11.458Z,10.26
2023-01-20T14:15:41.321Z,10.15
2023-01-20T14:18:18.487Z,10.18
2023-01-20T14:21:02.262Z,10.20
2023-01-20T14:23:34.518Z,10.20
2023-01-20T14:26:06.584Z,10.13
2023-01-20T14:28:35.557Z,10.12
2023-01-20T14:31:35.285Z,10.14
2023-01-20T14:34:19.853Z,10.11
2023-01-20T14:36:49.766Z,10.07
2023-01-20T14:39:21.758Z,10.10
2023-01-20T14:41:52.067Z,10.09
2023-01-20T14:44:22.310Z,10.06
2023-01-20T14:46:52.597Z,10.04
2023-01-20T14:49:22.425Z,9.99
2023-01-20T14:51:52.658Z,9.97
2023-01-20T14:54:43.248Z,9.98
2023-01-20T14:57:28.568Z,9.97
2023-01-20T15:00:22.416Z,9.85
2023-01-20T15:03:05.342Z,9.78
2023-01-20T15:05:41.740Z,9.67
2023-01-20T15:08:26.085Z,9.59
2023-01-20T15:11:21.787Z,9.48
2023-01-20T15:14:10.875Z,9.39
2023-01-20T15:16:52.078Z,9.28
2023-01-20T15:19:31.512Z,9.21
2023-01-20T15:22:18.227Z,9.12
2023-01-20T15:24:49.535Z,9.04
2023-01-20T15:27:25.528Z,8.95
2023-01-20T15:30:16.339Z,8.87
2023-01-20T15:32:44.565Z,8.80
2023-01-20T15:35:15.248Z,8.68
2023-01-20T15:37:44.604Z,8.56
2023-01-20T15:40:17.938Z,8.42
2023-01-20T15:42:46.917Z,8.32
2023-01-20T15:45:16.839Z,8.24
2023-01-20T15:47:46.852Z,8.15
2023-01-20T15:50:21.061Z,8.03
2023-01-20T15:52:49.667Z,7.91
2023-01-20T15:55:20.646Z,7.83
2023-01-20T15:57:52.596Z,7.73
2023-01-20T16:00:23.035Z,7.70
2023-01-20T16:02:51.574Z,7.66
2023-01-20T16:05:19.825Z,7.59
2023-01-20T16:07:49.560Z,7.52
2023-01-20T16:10:20.817Z,7.40
2023-01-20T16:12:49.181Z,7.32
2023-01-20T16:15:19.549Z,7.25
2023-01-20T16:17:47.831Z,7.18
2023-01-20T16:20:21.967Z,7.12
2023-01-20T16:22:51.377Z,7.04
2023-01-20T16:25:23.274Z,6.99
2023-01-20T16:27:51.812Z,6.93
2023-01-20T16:30:24.719Z,6.86
2023-01-20T16:32:53.470Z,6.80
2023-01-20T16:35:23.638Z,6.74
2023-01-20T16:37:52.798Z,6.68
2023-01-20T16:40:24.658Z,6.62
2023-01-20T16:42:56.022Z,6.57
2023-01-20T16:45:28.235Z,6.54
2023-01-20T16:47:57.733Z,6.50
2023-01-20T16:50:28.806Z,6.47
2023-01-20T16:52:57.948Z,6.41
2023-01-20T16:55:28.073Z,6.36
2023-01-20T16:57:56.187Z,6.32
2023-01-20T17:00:24.572Z,6.29
2023-01-20T17:02:53.232Z,6.23
2023-01-20T17:05:25.509Z,6.20
2023-01-20T17:07:54.629Z,6.18
2023-01-20T17:10:22.617Z,6.12
2023-01-20T17:12:52.976Z,6.08
2023-01-20T17:15:21.921Z,5.98
2023-01-20T17:17:50.038Z,5.90
2023-01-20T17:20:18.557Z,5.86
2023-01-20T17:22:46.839Z,5.82
2023-01-20T17:25:17.922Z,5.81
2023-01-20T17:27:46.361Z,5.77
2023-01-20T17:30:17.133Z,5.76
2023-01-20T17:32:49.715Z,5.76
2023-01-20T17:35:19.111Z,5.74
2023-01-20T17:37:47.155Z,5.72
2023-01-20T17:40:16.967Z,5.72
2023-01-20T17:42:46.485Z,5.72
2023-01-20T17:45:16.142Z,5.71
2023-01-20T17:47:44.218Z,5.70
2023-01-20T17:50:12.561Z,5.68
2023-01-20T17:52:40.756Z,5.68
2023-01-20T17:55:09.505Z,5.67
2023-01-20T17:57:37.828Z,5.65
2023-01-20T18:00:07.021Z,5.61
2023-01-20T18:02:37.038Z,5.59
2023-01-20T18:05:05.996Z,5.56
2023-01-20T18:07:34.024Z,5.54
2023-01-20T18:10:02.220Z,5.53
2023-01-20T18:12:30.315Z,5.50
2023-01-20T18:14:58.837Z,5.47
2023-01-20T18:17:27.238Z,5.44
2023-01-20T18:19:56.581Z,5.42
2023-01-20T18:22:24.620Z,5.37
2023-01-20T18:24:52.870Z,5.35
2023-01-20T18:27:20.791Z,5.34
2023-01-20T18:29:50.247Z,5.31
2023-01-20T18:32:18.882Z,5.30
2023-01-20T18:34:46.997Z,5.30
2023-01-20T18:37:16.470Z,5.28
2023-01-20T18:39:45.075Z,5.25
2023-01-20T18:42:13.296Z,5.23
2023-01-20T18:44:41.537Z,5.17
2023-01-20T18:47:09.891Z,5.13
2023-01-20T18:49:37.886Z,5.09
2023-01-20T18:52:06.214Z,5.04
2023-01-20T18:54:38.433Z,5.02
2023-01-20T18:57:09.026Z,4.98
2023-01-20T18:59:37.522Z,4.97
2023-01-20T19:02:05.638Z,4.97
2023-01-20T19:04:35.648Z,4.94
2023-01-20T19:07:04.129Z,4.91
2023-01-20T19:09:32.210Z,4.92
2023-01-20T19:12:01.747Z,4.91
2023-01-20T19:14:30.119Z,4.91
2023-01-20T19:16:58.253Z,4.92
2023-01-20T19:19:26.278Z,4.90
2023-01-20T19:21:54.678Z,4.88
2023-01-20T19:24:22.862Z,4.87
2023-01-20T19:26:50.943Z,4.88
2023-01-20T19:29:20.934Z,4.85
2023-01-20T19:31:49.567Z,4.82
2023-01-20T19:34:17.576Z,4.81
2023-01-20T19:36:45.835Z,4.76
2023-01-20T19:39:13.817Z,4.76
2023-01-20T19:41:41.814Z,4.73
2023-01-20T19:44:13.671Z,4.70
2023-01-20T19:46:43.366Z,4.69
2023-01-20T19:49:12.908Z,4.68
2023-01-20T19:51:41.431Z,4.68
2023-01-20T19:54:13.258Z,4.67
2023-01-20T19:56:41.895Z,4.66
2023-01-20T19:59:13.191Z,4.67
2023-01-20T20:01:43.134Z,4.64
2023-01-20T20:04:13.308Z,4.65
2023-01-20T20:06:46.049Z,4.66
2023-01-20T20:09:18.865Z,4.66
2023-01-20T20:11:47.918Z,4.64
2023-01-20T20:14:18.111Z,4.62
2023-01-20T20:16:48.437Z,4.63
2023-01-20T20:19:18.763Z,4.59
2023-01-20T20:21:47.083Z,4.53
2023-01-20T20:24:17.800Z,4.47
2023-01-20T20:26:47.350Z,4.49
2023-01-20T20:29:17.548Z,4.53
2023-01-20T20:31:47.708Z,4.53
2023-01-20T20:34:17.806Z,4.56
2023-01-20T20:36:46.500Z,4.56
2023-01-20T20:39:16.101Z,4.57
2023-01-20T20:41:44.622Z,4.57
2023-01-20T20:44:13.430Z,4.57
2023-01-20T20:46:41.721Z,4.56
2023-01-20T20:49:14.888Z,4.52
2023-01-20T20:51:43.295Z,4.52
2023-01-20T20:54:13.109Z,4.58
2023-01-20T20:56:41.301Z,4.60
2023-01-20T20:59:10.377Z,4.64
2023-01-20T21:01:38.759Z,4.66
2023-01-20T21:04:06.997Z,4.62
2023-01-20T21:06:36.842Z,4.58
2023-01-20T21:09:05.107Z,4.57
2023-01-20T21:11:33.711Z,4.54
2023-01-20T21:14:02.075Z,4.50
2023-01-20T21:16:30.156Z,4.45
2023-01-20T21:18:59.276Z,4.39
2023-01-20T21:21:28.970Z,4.35
2023-01-20T21:23:59.826Z,4.32
2023-01-20T21:26:30.660Z,4.24
2023-01-20T21:29:01.682Z,4.23
2023-01-20T21:31:31.358Z,4.21
2023-01-20T21:34:00.501Z,4.19
2023-01-20T21:36:29.905Z,4.17
2023-01-20T21:39:00.530Z,4.16
2023-01-20T21:41:28.797Z,4.15
2023-01-20T21:44:15.850Z,4.09
2023-01-20T21:46:44.054Z,4.04
2023-01-20T21:49:26.658Z,4.02
2023-01-20T21:52:12.656Z,4.02
2023-01-20T21:54:44.978Z,3.99
2023-01-20T21:57:13.709Z,3.88
2023-01-20T21:59:42.502Z,3.87
2023-01-20T22:02:12.964Z,3.87
2023-01-20T22:04:41.465Z,3.85
2023-01-20T22:07:10.319Z,3.86
2023-01-20T22:09:38.234Z,3.83
2023-01-20T22:12:10.117Z,3.75
2023-01-20T22:14:38.308Z,3.74
2023-01-20T22:17:07.295Z,3.77
2023-01-20T22:19:35.380Z,3.74
2023-01-20T22:22:04.316Z,3.73
2023-01-20T22:24:32.757Z,3.75
2023-01-20T22:27:01.629Z,3.76
2023-01-20T22:29:31.376Z,3.77
2023-01-20T22:32:02.344Z,3.79
2023-01-20T22:34:30.656Z,3.80
2023-01-20T22:37:00.490Z,3.79
2023-01-20T22:39:29.033Z,3.80
2023-01-20T22:41:57.256Z,3.83
2023-01-20T22:44:25.328Z,3.85
2023-01-20T22:46:54.970Z,3.81
2023-01-20T22:49:23.047Z,3.81
2023-01-20T22:51:51.532Z,3.78
2023-01-20T22:54:20.008Z,3.80
2023-01-20T22:56:48.107Z,3.75
2023-01-20T22:59:16.274Z,3.75
2023-01-20T23:01:44.559Z,3.71
2023-01-20T23:04:15.038Z,3.68
2023-01-20T23:06:43.151Z,3.64
2023-01-20T23:09:14.335Z,3.57
2023-01-20T23:11:43.058Z,3.52
2023-01-20T23:14:13.639Z,3.48
2023-01-20T23:16:42.581Z,3.41
2023-01-20T23:19:10.786Z,3.36
2023-01-20T23:21:40.394Z,3.35
2023-01-20T23:24:09.508Z,3.32
2023-01-20T23:26:37.555Z,3.32
2023-01-20T23:29:05.873Z,3.28
2023-01-20T23:31:35.314Z,3.29
2023-01-20T23:34:03.873Z,3.21
2023-01-20T23:36:35.225Z,3.23
2023-01-20T23:39:04.773Z,3.25
2023-01-20T23:41:35.782Z,3.26
2023-01-20T23:44:03.892Z,3.26
2023-01-20T23:46:31.863Z,3.26
2023-01-20T23:49:00.125Z,3.25
2023-01-20T23:51:28.110Z,3.26
2023-01-20T23:53:56.850Z,3.27
2023-01-20T23:56:26.756Z,3.31
2023-01-20T23:58:54.903Z,3.34
